createdAt,value
2023-09-03T00:01:45.820Z,72.50
2023-09-03T00:04:18.496Z,72.53
2023-09-03T00:06:48.607Z,72.88
2023-09-03T00:09:37.255Z,72.78
2023-09-03T00:12:09.937Z,72.67
2023-09-03T00:14:42.753Z,72.69
2023-09-03T00:17:15.529Z,72.72
2023-09-03T00:19:45.820Z,72.97
2023-09-03T00:22:16.049Z,72.88
2023-09-03T00:24:46.246Z,73.02
2023-09-03T00:27:16.361Z,73.04
2023-09-03T00:29:49.279Z,72.93
2023-09-03T00:32:19.400Z,73.05
2023-09-03T00:34:52.824Z,73.19
2023-09-03T00:37:23.115Z,73.28
2023-09-03T00:39:53.289Z,73.42
2023-09-03T00:42:28.358Z,73.38
2023-09-03T00:45:01.453Z,73.48
2023-09-03T00:47:32.288Z,73.62
2023-09-03T00:50:04.630Z,73.81
2023-09-03T00:52:35.351Z,73.87
2023-09-03T00:55:07.214Z,73.88
2023-09-03T00:57:37.472Z,73.85
2023-09-03T01:00:13.101Z,73.87
2023-09-03T01:02:45.634Z,73.86
2023-09-03T01:05:16.137Z,74.04
2023-09-03T01:07:46.393Z,73.89
2023-09-03T01:10:19.889Z,74.31
2023-09-03T01:12:58.623Z,74.27
2023-09-03T01:15:37.764Z,74.41
2023-09-03T01:18:13.442Z,74.54
2023-09-03T01:20:53.985Z,74.43
2023-09-03T01:23:40.509Z,74.39
2023-09-03T01:26:29.022Z,74.11
2023-09-03T01:29:03.210Z,74.40
2023-09-03T01:31:35.322Z,74.54
2023-09-03T01:34:07.312Z,74.82
2023-09-03T01:36:44.653Z,74.99
2023-09-03T01:39:19.059Z,74.94
2023-09-03T01:41:49.133Z,74.87
2023-09-03T01:44:21.885Z,74.75
2023-09-03T01:46:54.009Z,74.75
2023-09-03T01:49:38.865Z,74.40
2023-09-03T01:52:20.734Z,74.34
2023-09-03T01:54:52.856Z,74.83
2023-09-03T01:57:29.356Z,74.73
2023-09-03T02:00:06.736Z,74.57
2023-09-03T02:02:47.832Z,74.35
2023-09-03T02:05:19.791Z,74.62
2023-09-03T02:07:50.277Z,74.43
2023-09-03T02:10:20.757Z,74.12
2023-09-03T02:12:51.062Z,74.05
2023-09-03T02:15:24.002Z,74.20
2023-09-03T02:17:57.021Z,74.31
2023-09-03T02:20:27.685Z,74.51
2023-09-03T02:22:57.736Z,74.50
2023-09-03T02:25:27.952Z,74.63
2023-09-03T02:27:58.188Z,74.67
2023-09-03T02:30:31.397Z,74.63
2023-09-03T02:33:01.695Z,74.85
2023-09-03T02:35:31.997Z,75.06
2023-09-03T02:38:04.326Z,74.92
2023-09-03T02:40:34.341Z,75.17
2023-09-03T02:43:04.432Z,75.31
2023-09-03T02:45:37.396Z,75.39
2023-09-03T02:48:08.727Z,75.57
2023-09-03T02:50:42.162Z,75.51
2023-09-03T02:53:12.359Z,75.31
2023-09-03T02:55:42.495Z,75.34
2023-09-03T02:58:13.744Z,75.46
2023-09-03T03:00:46.661Z,75.45
2023-09-03T03:03:17.335Z,75.66
2023-09-03T03:05:47.540Z,75.97
2023-09-03T03:08:18.036Z,75.89
2023-09-03T03:10:48.331Z,75.88
2023-09-03T03:13:20.401Z,76.11
2023-09-03T03:15:54.379Z,75.89
2023-09-03T03:18:24.700Z,76.11
2023-09-03T03:20:57.280Z,75.96
2023-09-03T03:23:27.364Z,75.90
2023-09-03T03:25:57.744Z,76.11
2023-09-03T03:28:29.060Z,76.28
2023-09-03T03:31:02.569Z,76.43
2023-09-03T03:33:32.686Z,76.72
2023-09-03T03:36:03.561Z,76.72
2023-09-03T03:38:33.825Z,76.90
2023-09-03T03:41:14.376Z,76.78
2023-09-03T03:43:47.663Z,76.99
2023-09-03T03:46:22.152Z,77.08
2023-09-03T03:48:55.306Z,77.01
2023-09-03T03:51:25.504Z,77.14
2023-09-03T03:53:56.642Z,77.20
2023-09-03T03:56:27.986Z,77.16
2023-09-03T03:58:58.130Z,77.22
2023-09-03T04:01:31.225Z,77.41
2023-09-03T04:04:01.457Z,77.31
2023-09-03T04:06:31.512Z,77.39
2023-09-03T04:09:02.188Z,77.26
2023-09-03T04:11:32.220Z,77.15
2023-09-03T04:14:02.300Z,77.06
2023-09-03T04:16:35.081Z,77.13
2023-09-03T04:19:05.213Z,76.98
2023-09-03T04:21:35.309Z,76.83
2023-09-03T04:24:05.377Z,76.74
2023-09-03T04:26:35.511Z,76.49
2023-09-03T04:29:15.085Z,76.54
2023-09-03T04:31:47.959Z,76.48
2023-09-03T04:34:18.192Z,76.30
2023-09-03T04:36:48.486Z,76.24
2023-09-03T04:39:18.727Z,76.30
2023-09-03T04:41:48.821Z,76.10
2023-09-03T04:44:18.863Z,75.89
2023-09-03T04:46:55.065Z,75.70
2023-09-03T04:49:26.795Z,75.58
2023-09-03T04:51:56.901Z,75.88
2023-09-03T04:54:27.063Z,75.60
2023-09-03T04:56:57.210Z,75.52
2023-09-03T04:59:28.186Z,75.24
2023-09-03T05:02:00.896Z,75.11
2023-09-03T05:04:31.029Z,75.08
2023-09-03T05:07:01.449Z,75.08
2023-09-03T05:09:34.923Z,75.22
2023-09-03T05:12:05.147Z,74.69
2023-09-03T05:14:36.316Z,74.49
2023-09-03T05:17:09.408Z,74.47
2023-09-03T05:19:39.736Z,74.39
2023-09-03T05:22:10.381Z,73.79
2023-09-03T05:24:40.652Z,73.56
2023-09-03T05:27:10.815Z,73.41
2023-09-03T05:29:41.182Z,73.57
2023-09-03T05:32:14.035Z,73.42
2023-09-03T05:34:44.180Z,72.90
2023-09-03T05:37:14.873Z,72.99
2023-09-03T05:39:45.050Z,72.73
2023-09-03T05:42:15.148Z,72.66
2023-09-03T05:44:45.282Z,72.31
2023-09-03T05:47:21.862Z,72.59
2023-09-03T05:49:58.377Z,72.32
2023-09-03T05:52:29.000Z,72.14
2023-09-03T05:54:59.144Z,72.40
2023-09-03T05:57:29.549Z,72.75
2023-09-03T06:00:02.801Z,72.41
2023-09-03T06:02:38.072Z,71.94
2023-09-03T06:05:09.416Z,71.49
2023-09-03T06:07:39.668Z,71.49
2023-09-03T06:10:11.115Z,71.09
2023-09-03T06:12:41.228Z,71.07
2023-09-03T06:15:15.687Z,71.00
2023-09-03T06:17:52.147Z,70.96
2023-09-03T06:20:22.279Z,71.30
2023-09-03T06:22:54.337Z,69.88
2023-09-03T06:25:24.695Z,69.79
2023-09-03T06:27:54.784Z,67.84
2023-09-03T06:30:24.960Z,66.68
2023-09-03T06:32:58.675Z,66.55
2023-09-03T06:35:28.848Z,65.90
2023-09-03T06:37:59.805Z,65.70
2023-09-03T06:40:30.199Z,65.81
2023-09-03T06:43:00.364Z,65.78
2023-09-03T06:45:31.825Z,65.79
2023-09-03T06:48:04.545Z,66.15
2023-09-03T06:50:37.662Z,66.67
2023-09-03T06:53:08.079Z,66.58
2023-09-03T06:55:38.211Z,67.02
2023-09-03T06:58:08.791Z,66.57
2023-09-03T07:00:38.897Z,65.79
2023-09-03T07:03:11.690Z,65.28
2023-09-03T07:05:41.819Z,65.21
2023-09-03T07:08:11.988Z,65.14
2023-09-03T07:10:44.338Z,65.05
2023-09-03T07:13:16.230Z,64.46
2023-09-03T07:15:46.303Z,63.12
2023-09-03T07:18:18.993Z,61.59
2023-09-03T07:20:49.275Z,60.33
2023-09-03T07:23:19.507Z,58.89
2023-09-03T07:25:52.454Z,59.00
2023-09-03T07:28:22.829Z,57.37
2023-09-03T07:30:53.187Z,56.75
2023-09-03T07:33:25.904Z,57.70
2023-09-03T07:35:55.998Z,56.30
2023-09-03T07:38:26.588Z,56.32
2023-09-03T07:40:56.904Z,56.15
2023-09-03T07:43:27.233Z,56.32
2023-09-03T07:45:57.402Z,56.63
2023-09-03T07:48:30.299Z,56.44
2023-09-03T07:51:00.605Z,56.44
2023-09-03T07:53:31.164Z,55.63
2023-09-03T07:56:01.208Z,56.09
2023-09-03T07:58:31.438Z,56.22
2023-09-03T08:01:01.532Z,56.33
2023-09-03T08:03:38.387Z,55.26
2023-09-03T08:06:08.764Z,54.53
2023-09-03T08:08:39.960Z,55.50
2023-09-03T08:11:10.238Z,54.80
2023-09-03T08:13:40.295Z,54.76
2023-09-03T08:16:10.423Z,54.35
2023-09-03T08:18:43.120Z,54.09
2023-09-03T08:21:13.112Z,53.22
2023-09-03T08:23:43.184Z,53.26
2023-09-03T08:26:13.920Z,53.67
2023-09-03T08:28:43.956Z,53.66
2023-09-03T08:31:14.892Z,53.54
2023-09-03T08:33:55.296Z,53.65
2023-09-03T08:36:26.134Z,51.87
2023-09-03T08:38:57.243Z,53.02
2023-09-03T08:41:28.628Z,53.14
2023-09-03T08:44:02.021Z,50.89
2023-09-03T08:46:35.134Z,51.82
2023-09-03T08:49:08.862Z,50.19
2023-09-03T08:51:39.941Z,49.44
2023-09-03T08:54:11.437Z,49.98
2023-09-03T08:56:41.488Z,49.06
2023-09-03T08:59:13.408Z,49.79
2023-09-03T09:01:43.970Z,49.17
2023-09-03T09:04:17.064Z,49.61
2023-09-03T09:06:47.814Z,49.33
2023-09-03T09:09:20.253Z,48.23
2023-09-03T09:12:02.477Z,48.11
2023-09-03T09:14:40.005Z,48.57
2023-09-03T09:17:15.346Z,47.65
2023-09-03T09:19:48.065Z,47.46
2023-09-03T09:22:20.608Z,45.08
2023-09-03T09:24:51.681Z,43.47
2023-09-03T09:27:23.944Z,42.24
2023-09-03T09:29:54.236Z,42.07
2023-09-03T09:32:28.436Z,41.64
2023-09-03T09:35:01.250Z,42.48
2023-09-03T09:37:40.893Z,40.52
2023-09-03T09:40:13.933Z,40.46
2023-09-03T09:42:56.178Z,40.01
2023-09-03T09:45:26.399Z,38.27
2023-09-03T09:48:07.882Z,38.22
2023-09-03T09:50:42.225Z,37.88
2023-09-03T09:53:24.788Z,37.27
2023-09-03T09:56:02.857Z,36.88
2023-09-03T09:58:39.998Z,36.42
2023-09-03T10:01:11.143Z,36.09
2023-09-03T10:03:46.485Z,35.66
2023-09-03T10:06:20.879Z,35.60
2023-09-03T10:08:52.867Z,37.21
2023-09-03T10:11:23.673Z,36.89
2023-09-03T10:13:54.471Z,36.08
2023-09-03T10:16:25.296Z,36.43
2023-09-03T10:18:56.243Z,36.37
2023-09-03T10:21:52.402Z,34.31
2023-09-03T10:24:22.880Z,34.70
2023-09-03T10:26:57.725Z,34.43
2023-09-03T10:29:31.025Z,34.59
2023-09-03T10:32:04.357Z,32.89
2023-09-03T10:34:35.876Z,32.18
2023-09-03T10:37:13.319Z,32.67
2023-09-03T10:39:44.585Z,32.92
2023-09-03T10:42:37.730Z,33.66
2023-09-03T10:45:19.643Z,33.04
2023-09-03T10:48:09.642Z,34.17
2023-09-03T10:50:48.644Z,32.30
2023-09-03T10:53:41.027Z,32.83
2023-09-03T10:56:29.030Z,32.49
2023-09-03T10:59:01.081Z,30.73
2023-09-03T11:01:35.260Z,30.63
2023-09-03T11:04:07.042Z,30.40
2023-09-03T11:06:38.390Z,28.77
2023-09-03T11:09:29.052Z,30.05
2023-09-03T11:12:08.301Z,29.56
2023-09-03T11:14:38.653Z,30.51
2023-09-03T11:17:15.181Z,30.18
2023-09-03T11:19:45.431Z,30.72
2023-09-03T11:22:15.784Z,30.75
2023-09-03T11:24:51.750Z,31.54
2023-09-03T11:27:21.983Z,33.13
2023-09-03T11:29:52.161Z,31.38
2023-09-03T11:32:39.267Z,32.69
2023-09-03T11:35:09.997Z,33.08
2023-09-03T11:37:40.148Z,32.62
2023-09-03T11:40:14.173Z,34.41
2023-09-03T11:42:45.660Z,33.51
2023-09-03T11:45:16.128Z,34.03
2023-09-03T11:47:51.005Z,33.83
2023-09-03T11:50:22.331Z,33.77
2023-09-03T11:52:52.893Z,35.67
2023-09-03T11:55:27.640Z,35.27
2023-09-03T11:58:02.141Z,36.65
2023-09-03T12:00:33.237Z,36.24
2023-09-03T12:03:04.624Z,36.81
2023-09-03T12:05:37.069Z,36.33
2023-09-03T12:08:08.491Z,36.85
2023-09-03T12:10:43.791Z,37.00
2023-09-03T12:13:14.052Z,38.08
2023-09-03T12:15:44.310Z,37.14
2023-09-03T12:18:14.635Z,37.13
2023-09-03T12:20:51.455Z,38.69
2023-09-03T12:23:22.393Z,37.91
2023-09-03T12:25:57.261Z,37.31
2023-09-03T12:28:38.549Z,38.49
2023-09-03T12:31:09.943Z,38.20
2023-09-03T12:33:51.813Z,37.62
2023-09-03T12:36:23.548Z,37.09
2023-09-03T12:38:58.365Z,38.15
2023-09-03T12:41:41.349Z,36.65
2023-09-03T12:44:16.653Z,35.71
2023-09-03T12:46:49.777Z,36.45
2023-09-03T12:49:21.989Z,35.75
2023-09-03T12:51:53.486Z,36.19
2023-09-03T12:54:24.263Z,36.02
2023-09-03T12:57:00.748Z,35.87
2023-09-03T12:59:31.724Z,36.82
2023-09-03T13:02:05.950Z,37.36
2023-09-03T13:04:37.988Z,36.17
2023-09-03T13:07:08.182Z,37.28
2023-09-03T13:09:38.354Z,36.90
2023-09-03T13:12:11.616Z,37.88
2023-09-03T13:14:41.777Z,37.46
2023-09-03T13:17:14.630Z,38.56
2023-09-03T13:19:47.754Z,37.87
2023-09-03T13:22:20.367Z,37.30
2023-09-03T13:24:50.475Z,37.09
2023-09-03T13:27:23.475Z,38.43
2023-09-03T13:29:53.709Z,38.85
2023-09-03T13:32:31.897Z,38.80
2023-09-03T13:35:03.460Z,37.85
2023-09-03T13:37:33.671Z,38.68
2023-09-03T13:40:06.863Z,38.21
2023-09-03T13:42:41.374Z,38.82
2023-09-03T13:45:15.183Z,38.65
2023-09-03T13:47:49.942Z,37.32
2023-09-03T13:50:22.913Z,37.22
2023-09-03T13:52:52.999Z,37.56
2023-09-03T13:55:27.608Z,37.63
2023-09-03T13:58:03.455Z,37.53
2023-09-03T14:00:36.119Z,37.91
2023-09-03T14:03:09.303Z,37.94
2023-09-03T14:05:39.855Z,38.45
2023-09-03T14:08:11.548Z,37.83
2023-09-03T14:10:49.573Z,38.20
2023-09-03T14:13:25.297Z,38.33
2023-09-03T14:15:55.806Z,38.27
2023-09-03T14:18:29.675Z,39.22
2023-09-03T14:21:01.639Z,39.20
2023-09-03T14:23:32.188Z,38.88
2023-09-03T14:26:02.516Z,39.12
2023-09-03T14:28:36.915Z,39.53
2023-09-03T14:31:07.038Z,40.37
2023-09-03T14:33:37.288Z,39.78
2023-09-03T14:36:08.288Z,40.23
2023-09-03T14:38:38.697Z,40.64
2023-09-03T14:41:08.844Z,40.25
2023-09-03T14:43:41.759Z,40.39
2023-09-03T14:46:11.860Z,40.11
2023-09-03T14:48:41.962Z,39.59
2023-09-03T14:51:12.036Z,39.43
2023-09-03T14:53:42.067Z,40.07
2023-09-03T14:56:13.284Z,40.45
2023-09-03T14:58:46.054Z,39.98
2023-09-03T15:01:19.737Z,40.55
2023-09-03T15:03:52.291Z,40.32
2023-09-03T15:06:26.865Z,39.32
2023-09-03T15:08:57.310Z,40.23
2023-09-03T15:11:28.250Z,40.13
2023-09-03T15:14:04.063Z,40.88
2023-09-03T15:16:35.347Z,40.29
2023-09-03T15:19:05.552Z,40.13
2023-09-03T15:21:36.553Z,40.37
2023-09-03T15:24:07.041Z,39.94
2023-09-03T15:26:37.401Z,39.64
2023-09-03T15:29:10.545Z,40.14
2023-09-03T15:31:40.710Z,40.49
2023-09-03T15:34:12.086Z,40.47
2023-09-03T15:36:42.410Z,40.87
2023-09-03T15:39:14.821Z,40.38
2023-09-03T15:41:44.859Z,41.26
2023-09-03T15:44:17.636Z,40.82
2023-09-03T15:46:48.451Z,40.74
2023-09-03T15:49:18.611Z,40.19
2023-09-03T15:51:49.080Z,40.82
2023-09-03T15:54:19.832Z,40.54
2023-09-03T15:56:49.895Z,40.21
2023-09-03T15:59:25.878Z,40.43
2023-09-03T16:01:57.049Z,40.48
2023-09-03T16:04:27.474Z,41.47
2023-09-03T16:06:57.683Z,41.45
2023-09-03T16:09:27.913Z,41.19
2023-09-03T16:11:58.157Z,41.38
2023-09-03T16:14:30.940Z,41.37
2023-09-03T16:17:01.007Z,41.94
2023-09-03T16:19:31.260Z,42.17
2023-09-03T16:22:01.482Z,41.47
2023-09-03T16:24:31.827Z,41.55
2023-09-03T16:27:02.008Z,41.28
2023-09-03T16:29:34.828Z,41.40
2023-09-03T16:32:04.966Z,41.82
2023-09-03T16:34:35.413Z,42.13
2023-09-03T16:37:07.418Z,42.02
2023-09-03T16:39:40.111Z,42.28
2023-09-03T16:42:10.487Z,42.40
2023-09-03T16:44:43.558Z,42.36
2023-09-03T16:47:13.720Z,42.85
2023-09-03T16:49:43.770Z,42.96
2023-09-03T16:52:13.930Z,43.06
2023-09-03T16:54:44.151Z,43.45
2023-09-03T16:57:14.271Z,43.21
2023-09-03T16:59:46.962Z,43.39
2023-09-03T17:02:17.153Z,43.86
2023-09-03T17:04:47.380Z,43.92
2023-09-03T17:07:17.515Z,44.17
2023-09-03T17:09:48.127Z,44.58
2023-09-03T17:12:18.199Z,44.86
2023-09-03T17:14:53.904Z,44.42
2023-09-03T17:17:23.993Z,44.78
2023-09-03T17:19:54.532Z,44.89
2023-09-03T17:22:24.741Z,45.12
2023-09-03T17:24:54.857Z,44.90
2023-09-03T17:27:24.886Z,45.13
2023-09-03T17:29:58.432Z,45.09
2023-09-03T17:32:28.519Z,45.69
2023-09-03T17:34:58.613Z,46.62
2023-09-03T17:37:28.711Z,46.63
2023-09-03T17:39:59.945Z,46.77
2023-09-03T17:42:30.017Z,46.69
2023-09-03T17:45:03.382Z,46.86
2023-09-03T17:47:35.282Z,47.02
2023-09-03T17:50:10.087Z,47.16
2023-09-03T17:52:40.240Z,47.31
2023-09-03T17:55:12.405Z,47.44
2023-09-03T17:57:43.638Z,48.00
2023-09-03T18:00:16.581Z,48.42
2023-09-03T18:02:47.804Z,48.33
2023-09-03T18:05:19.694Z,48.17
2023-09-03T18:07:49.802Z,48.33
2023-09-03T18:10:20.265Z,48.78
2023-09-03T18:12:50.716Z,48.35
2023-09-03T18:15:23.608Z,48.47
2023-09-03T18:17:53.787Z,49.45
2023-09-03T18:20:25.046Z,49.51
2023-09-03T18:22:55.159Z,49.71
2023-09-03T18:25:26.891Z,49.99
2023-09-03T18:27:57.665Z,50.06
2023-09-03T18:30:30.453Z,49.89
2023-09-03T18:33:00.569Z,50.51
2023-09-03T18:35:30.960Z,50.48
2023-09-03T18:38:01.026Z,50.64
2023-09-03T18:40:33.151Z,50.96
2023-09-03T18:43:03.301Z,50.84
2023-09-03T18:45:36.110Z,51.20
2023-09-03T18:48:06.541Z,51.65
2023-09-03T18:50:36.109Z,51.60
2023-09-03T18:53:07.061Z,51.53
2023-09-03T18:55:40.268Z,51.93
2023-09-03T18:58:10.534Z,51.92
2023-09-03T19:00:43.270Z,52.29
2023-09-03T19:03:13.471Z,52.63
2023-09-03T19:05:47.834Z,52.50
2023-09-03T19:08:20.468Z,52.75
2023-09-03T19:10:58.211Z,52.90
2023-09-03T19:13:28.453Z,53.40
2023-09-03T19:16:02.319Z,53.83
2023-09-03T19:18:35.330Z,54.08
2023-09-03T19:21:05.382Z,54.55
2023-09-03T19:23:38.112Z,54.74
2023-09-03T19:26:09.331Z,55.14
2023-09-03T19:28:39.512Z,55.01
2023-09-03T19:31:12.249Z,55.29
2023-09-03T19:33:42.516Z,55.50
2023-09-03T19:36:12.630Z,55.79
2023-09-03T19:38:42.837Z,55.69
2023-09-03T19:41:12.958Z,56.14
2023-09-03T19:43:43.001Z,56.56
2023-09-03T19:46:15.761Z,56.82
2023-09-03T19:48:47.146Z,56.96
2023-09-03T19:51:17.180Z,57.15
2023-09-03T19:53:47.781Z,56.97
2023-09-03T19:56:22.354Z,57.19
2023-09-03T19:58:53.942Z,57.69
2023-09-03T20:01:28.344Z,57.52
2023-09-03T20:03:58.762Z,57.45
2023-09-03T20:06:29.150Z,57.77
2023-09-03T20:08:59.259Z,58.10
2023-09-03T20:11:29.535Z,58.03
2023-09-03T20:14:00.589Z,58.05
2023-09-03T20:16:34.874Z,58.20
2023-09-03T20:19:07.322Z,58.26
2023-09-03T20:21:38.151Z,58.56
2023-09-03T20:24:09.310Z,58.88
2023-09-03T20:26:39.539Z,58.67
2023-09-03T20:29:10.037Z,58.91
2023-09-03T20:31:45.197Z,58.68
2023-09-03T20:34:15.463Z,58.83
2023-09-03T20:36:45.586Z,59.18
2023-09-03T20:39:19.002Z,59.78
2023-09-03T20:41:49.037Z,59.61
2023-09-03T20:44:19.366Z,59.69
2023-09-03T20:46:53.430Z,59.83
2023-09-03T20:49:23.654Z,59.87
2023-09-03T20:51:54.072Z,60.36
2023-09-03T20:54:26.200Z,60.34
2023-09-03T20:56:56.384Z,60.32
2023-09-03T20:59:26.564Z,60.23
2023-09-03T21:01:59.954Z,60.54
2023-09-03T21:04:30.185Z,60.76
2023-09-03T21:07:00.373Z,61.08
2023-09-03T21:09:30.624Z,61.13
2023-09-03T21:12:00.858Z,61.25
2023-09-03T21:14:30.912Z,61.62
2023-09-03T21:17:04.252Z,61.26
2023-09-03T21:19:34.606Z,61.41
2023-09-03T21:22:04.715Z,61.48
2023-09-03T21:24:34.856Z,61.72
2023-09-03T21:27:04.952Z,62.01
2023-09-03T21:29:35.099Z,62.13
2023-09-03T21:32:09.075Z,62.08
2023-09-03T21:34:39.470Z,62.37
2023-09-03T21:37:09.522Z,62.47
2023-09-03T21:39:39.861Z,62.77
2023-09-03T21:42:09.995Z,62.56
2023-09-03T21:44:40.012Z,62.49
2023-09-03T21:47:12.809Z,62.71
2023-09-03T21:49:42.970Z,62.35
2023-09-03T21:52:13.261Z,62.58
2023-09-03T21:54:43.361Z,62.90
2023-09-03T21:57:13.495Z,63.07
2023-09-03T21:59:44.064Z,63.54
2023-09-03T22:02:19.094Z,63.29
2023-09-03T22:04:49.181Z,63.62
2023-09-03T22:07:19.347Z,63.76
2023-09-03T22:09:49.635Z,63.78
2023-09-03T22:12:19.754Z,63.93
2023-09-03T22:14:49.856Z,64.18
2023-09-03T22:17:22.605Z,64.26
2023-09-03T22:19:53.577Z,64.23
2023-09-03T22:22:23.643Z,64.24
2023-09-03T22:24:53.924Z,64.65
2023-09-03T22:27:26.284Z,64.82
2023-09-03T22:29:56.810Z,64.65
2023-09-03T22:32:31.319Z,64.82
2023-09-03T22:35:01.436Z,65.12
2023-09-03T22:37:31.783Z,65.43
2023-09-03T22:40:04.524Z,65.49
2023-09-03T22:42:34.871Z,65.26
2023-09-03T22:45:05.143Z,65.35
2023-09-03T22:47:38.278Z,65.33
2023-09-03T22:50:09.767Z,65.42
2023-09-03T22:52:39.872Z,65.52
2023-09-03T22:55:10.722Z,65.30
2023-09-03T22:57:41.037Z,65.51
2023-09-03T23:00:13.234Z,65.78
2023-09-03T23:02:47.596Z,65.66
2023-09-03T23:05:17.700Z,65.71
2023-09-03T23:07:47.887Z,65.83
2023-09-03T23:10:18.054Z,66.05
2023-09-03T23:12:48.137Z,65.94
2023-09-03T23:15:18.582Z,66.26
2023-09-03T23:17:51.519Z,66.24
2023-09-03T23:20:21.927Z,66.33
2023-09-03T23:22:52.210Z,66.38
2023-09-03T23:25:22.567Z,66.19
2023-09-03T23:27:53.223Z,66.19
2023-09-03T23:30:23.425Z,66.47
2023-09-03T23:32:56.238Z,66.60
2023-09-03T23:35:26.898Z,66.61
2023-09-03T23:38:00.467Z,66.81
2023-09-03T23:40:30.811Z,66.76
2023-09-03T23:43:00.836Z,66.99
2023-09-03T23:45:30.887Z,67.22
2023-09-03T23:48:03.836Z,67.09
2023-09-03T23:50:33.920Z,67.21
2023-09-03T23:53:04.122Z,67.20
2023-09-03T23:55:34.123Z,67.15
2023-09-03T23:58:04.257Z,67.44
